Raquette Lake, NY

8:41 AM EST on February 06, 2016 (GMT -0500)
Adirondack Acres | | Change Station
CLOSE
Current Station
Personal Weather Station
Location: Long Lake, NY
Elevation: 1650 ft
Nearby Weather Stations

Elev 1650 ft 43.98 °N, 74.43 °W | Updated 21 seconds ago

Snow
Snow
24.4 °F
Feels Like 19 °F
N
4.0
Wind Variable Wind from SSW
Gusts 4.0 mph

Today
High -- | Low -- °F
--% Chance of Precip.
Yesterday
High -- | Low -- °F
Precip. -- in
Pressure 30.22 in
Visibility 3.0 miles
Clouds Mostly Cloudy 2300 ft
Mostly Cloudy 2800 ft
Overcast 7000 ft
Windchill 19 °F
Dew Point 17 °F
Humidity 74%
Rainfall 0.00 in
Snow Depth Not available.
7:09 AM 5:15 PM
Waning Crescent, 5% visible
METAR KSLK 061251Z AUTO 22010KT 3SM -SN BR BKN023 BKN028 OVC070 M04/M06 A3014 RMK AO2 SNE17B47 SLP232 P0000 T10441061
Pressure 30.22 in
Visibility 3.0 miles
Clouds Mostly Cloudy 2300 ft
Mostly Cloudy 2800 ft
Overcast 7000 ft
Windchill 19 °F
Dew Point 17 °F
Humidity 74%
Rainfall 0.00 in
Snow Depth Not available.
7:09 AM 5:15 PM
Waning Crescent, 5% visible
METAR KSLK 061251Z AUTO 22010KT 3SM -SN BR BKN023 BKN028 OVC070 M04/M06 A3014 RMK AO2 SNE17B47 SLP232 P0000 T10441061

10-Day Weather Forecast

Almanac

Astronomy

Feb. 06, 2016 Rise Set
Actual Time
Civil Twilight
Nautical Twilight
Astronomical Twilight
Moon
Length of Visible Light
Length of Day
Tomorrow will be .
, % of the Moon is Illuminated

Today's Extremes

State Highs State Lows

Community

WunderPhotos

Upload Photos

1,890,971 photos uploaded!

WunderBlog® & News

Nearby

Air Quality

  Air Quality AQ Index Pollutant
Not available.

Snow Depth

Station Depth Elevation

Earthquake Activity

City Distance Mag. Time & Date
Minimum magnitude displayed is 2.5.

Coastal Water Temperatures

Place Temperature

Stations

Nearby Weather Stations

Station Location Temp. Windchill Dew Point Humidity Wind Precip. Elev Updated Type
                   

Watches & Warnings

There are currently no watches in effect.